Alton, Virginia
Current Conditions -  °F | °C
As of 9:35 AM on Monday 22 Dec 2014 (Local Time) from KW78 Reporting Station
Overcast Overcast  
Wind Chill: 30°   Ceiling: 800
Heat Index: 35°   Visibility: 2.5mi
Dew Point: 33°   Wind: 6mph
Humidity: 93%   Direction: 30°NNE
Pressure: 30.21"   Gusts: NA
Location:  36.57°N, 79°W
Report Text: KW78 221435Z AUTO 03005KT 2 1/2SM OVC008 02/01 A3021 RMK AO1 T00150005
Loading
Personal Weather Stations






























Interactive Weather Map New forecast layout! Learn more

10-Day Weather Forecast

Advertisements
Track Severe Weather on mobile